Time,TemperatureF,DewpointF,PressureIn,WindDirection,WindDirectionDegrees,WindSpeedMPH,WindSpeedGustMPH,Humidity,HourlyPrecipIn,Conditions,Clouds,dailyrainin,SolarRadiationWatts/m^2,SoftwareType,DateUTC
2013-03-31 00:12:00,69.0,60.0,30.03,NNW,345,9.0,17.0,73,0.00,,,0.00,0.000000,,2013-03-31 10:12:00,
2013-03-31 00:23:00,69.0,60.0,30.03,NNW,345,9.0,17.0,73,0.00,,,0.00,0.000000,,2013-03-31 10:23:00,
2013-03-31 00:32:00,69.0,60.0,30.03,NNW,345,9.0,17.0,73,0.00,,,0.00,0.000000,,2013-03-31 10:32:00,
2013-03-31 00:42:00,69.0,60.0,30.03,NNW,345,9.0,17.0,73,0.00,,,0.00,0.000000,,2013-03-31 10:42:00,
2013-03-31 00:52:00,69.0,60.0,30.03,NNW,345,9.0,17.0,73,0.00,,,0.00,0.000000,,2013-03-31 10:52:00,
2013-03-31 01:12:00,69.0,61.0,30.01,NNW,330,10.0,21.0,75,0.00,,,0.00,0.000000,,2013-03-31 11:12:00,
2013-03-31 01:22:00,69.0,61.0,30.01,NNW,330,10.0,21.0,75,0.00,,,0.00,0.000000,,2013-03-31 11:22:00,
2013-03-31 01:32:00,69.0,61.0,30.01,NNW,330,10.0,21.0,75,0.00,,,0.00,0.000000,,2013-03-31 11:32:00,
2013-03-31 01:42:00,69.0,61.0,30.01,NNW,330,10.0,21.0,75,0.00,,,0.00,0.000000,,2013-03-31 11:42:00,
2013-03-31 01:51:00,69.0,61.0,30.01,NNW,330,10.0,21.0,75,0.00,,,0.00,0.000000,,2013-03-31 11:51:00,
2013-03-31 02:22:00,70.0,62.0,30.01,North,350,8.0,16.0,75,0.00,,,-99.99,0.000000,,2013-03-31 12:22:00,
2013-03-31 02:32:00,70.0,62.0,30.01,North,350,8.0,16.0,75,0.00,,,-99.99,0.000000,,2013-03-31 12:32:00,
2013-03-31 02:42:00,70.0,62.0,30.01,North,350,8.0,16.0,75,0.00,,,-99.99,0.000000,,2013-03-31 12:42:00,
2013-03-31 02:52:00,70.0,62.0,30.01,North,350,8.0,16.0,75,0.00,,,-99.99,0.000000,,2013-03-31 12:52:00,
2013-03-31 03:12:00,69.0,60.0,30.00,NNW,334,8.0,14.0,73,0.00,,,0.00,0.000000,,2013-03-31 13:12:00,
2013-03-31 03:22:00,69.0,60.0,30.00,NNW,334,8.0,14.0,73,0.00,,,0.00,0.000000,,2013-03-31 13:22:00,
2013-03-31 03:32:00,69.0,60.0,30.00,NNW,334,8.0,14.0,73,0.00,,,0.00,0.000000,,2013-03-31 13:32:00,
2013-03-31 03:42:00,69.0,60.0,30.00,NNW,334,8.0,14.0,73,0.00,,,0.00,0.000000,,2013-03-31 13:42:00,
2013-03-31 03:52:00,69.0,60.0,30.00,NNW,334,8.0,14.0,73,0.00,,,0.00,0.000000,,2013-03-31 13:52:00,
2013-03-31 04:12:00,69.0,60.0,30.00,NW,321,11.0,19.0,74,0.00,,,0.00,0.000000,,2013-03-31 14:12:00,
2013-03-31 04:22:00,69.0,60.0,30.00,NW,321,11.0,19.0,74,0.00,,,0.00,0.000000,,2013-03-31 14:22:00,
2013-03-31 04:32:00,69.0,60.0,30.00,NW,321,11.0,19.0,74,0.00,,,0.00,0.000000,,2013-03-31 14:32:00,
2013-03-31 04:42:00,69.0,60.0,30.00,NW,321,11.0,19.0,74,0.00,,,0.00,0.000000,,2013-03-31 14:42:00,
2013-03-31 04:51:00,69.0,60.0,30.00,NW,321,11.0,19.0,74,0.00,,,0.00,0.000000,,2013-03-31 14:51:00,
2013-03-31 04:53:00,67.0,58.0,30.00,North,357,15.0,26.0,74,0.00,,,0.00,0.000000,,2013-03-31 14:53:00,
2013-03-31 05:12:00,67.0,58.0,30.00,North,357,15.0,26.0,74,0.00,,,0.00,0.000000,,2013-03-31 15:12:00,
2013-03-31 05:22:00,67.0,58.0,30.00,North,357,15.0,26.0,74,0.00,,,0.00,0.000000,,2013-03-31 15:22:00,
2013-03-31 05:33:00,67.0,58.0,30.00,North,357,15.0,26.0,74,0.00,,,0.00,0.000000,,2013-03-31 15:33:00,
2013-03-31 05:43:00,67.0,58.0,30.00,North,357,15.0,26.0,74,0.00,,,0.00,0.000000,,2013-03-31 15:43:00,
2013-03-31 06:13:00,68.0,58.0,30.02,North,349,12.0,25.0,70,0.00,,,0.00,0.000000,,2013-03-31 16:13:00,
2013-03-31 06:22:00,68.0,58.0,30.02,North,349,12.0,25.0,70,0.00,,,0.00,0.000000,,2013-03-31 16:22:00,
2013-03-31 06:33:00,68.0,58.0,30.02,North,349,12.0,25.0,70,0.00,,,0.00,0.000000,,2013-03-31 16:33:00,
2013-03-31 06:42:00,68.0,58.0,30.02,North,349,12.0,25.0,70,0.00,,,0.00,0.000000,,2013-03-31 16:42:00,
2013-03-31 06:52:00,68.0,58.0,30.02,North,349,12.0,25.0,70,0.00,,,0.00,0.000000,,2013-03-31 16:52:00,
2013-03-31 07:12:00,70.0,56.0,30.04,NNW,345,15.0,31.0,62,0.00,,,0.00,15.000000,,2013-03-31 17:12:00,
2013-03-31 07:22:00,70.0,56.0,30.04,NNW,345,15.0,31.0,62,0.00,,,0.00,15.000000,,2013-03-31 17:22:00,
2013-03-31 07:32:00,70.0,56.0,30.04,NNW,345,15.0,31.0,62,0.00,,,0.00,15.000000,,2013-03-31 17:32:00,
2013-03-31 07:42:00,70.0,56.0,30.04,NNW,345,15.0,31.0,62,0.00,,,0.00,15.000000,,2013-03-31 17:42:00,
2013-03-31 07:51:00,70.0,56.0,30.04,NNW,345,15.0,31.0,62,0.00,,,0.00,15.000000,,2013-03-31 17:51:00,
2013-03-31 08:22:00,72.0,55.0,30.04,NNW,347,14.0,29.0,55,0.00,,,0.00,152.000000,,2013-03-31 18:22:00,
2013-03-31 08:32:00,72.0,55.0,30.04,NNW,347,14.0,29.0,55,0.00,,,0.00,152.000000,,2013-03-31 18:32:00,
2013-03-31 08:42:00,72.0,55.0,30.04,NNW,347,14.0,29.0,55,0.00,,,0.00,152.000000,,2013-03-31 18:42:00,
2013-03-31 08:52:00,72.0,55.0,30.04,NNW,347,14.0,29.0,55,0.00,,,0.00,152.000000,,2013-03-31 18:52:00,
2013-03-31 08:53:00,75.0,55.0,30.06,NNW,347,17.0,29.0,49,0.00,,,0.00,528.000000,,2013-03-31 18:53:00,
2013-03-31 09:12:00,75.0,55.0,30.06,NNW,347,17.0,29.0,49,0.00,,,0.00,528.000000,,2013-03-31 19:12:00,
2013-03-31 09:22:00,75.0,55.0,30.06,NNW,347,17.0,29.0,49,0.00,,,0.00,528.000000,,2013-03-31 19:22:00,
2013-03-31 09:32:00,75.0,55.0,30.06,NNW,347,17.0,29.0,49,0.00,,,0.00,528.000000,,2013-03-31 19:32:00,
2013-03-31 09:42:00,75.0,55.0,30.06,NNW,347,17.0,29.0,49,0.00,,,0.00,528.000000,,2013-03-31 19:42:00,
2013-03-31 10:12:00,77.0,54.0,30.06,NNW,346,12.0,25.0,45,0.00,,,0.00,794.000000,,2013-03-31 20:12:00,
2013-03-31 10:22:00,77.0,54.0,30.06,NNW,346,12.0,25.0,45,0.00,,,0.00,794.000000,,2013-03-31 20:22:00,
2013-03-31 10:33:00,77.0,54.0,30.06,NNW,346,12.0,25.0,45,0.00,,,0.00,794.000000,,2013-03-31 20:33:00,
2013-03-31 10:42:00,77.0,54.0,30.06,NNW,346,12.0,25.0,45,0.00,,,0.00,794.000000,,2013-03-31 20:42:00,
2013-03-31 10:52:00,77.0,54.0,30.06,NNW,346,12.0,25.0,45,0.00,,,0.00,794.000000,,2013-03-31 20:52:00,
2013-03-31 10:53:00,78.0,55.0,30.06,NW,318,11.0,24.0,45,0.00,,,0.00,1018.000000,,2013-03-31 20:53:00,
2013-03-31 11:12:00,78.0,55.0,30.06,NW,318,11.0,24.0,45,0.00,,,0.00,1018.000000,,2013-03-31 21:12:00,
2013-03-31 11:22:00,78.0,55.0,30.06,NW,318,11.0,24.0,45,0.00,,,0.00,1018.000000,,2013-03-31 21:22:00,
2013-03-31 11:33:00,78.0,55.0,30.06,NW,318,11.0,24.0,45,0.00,,,0.00,1018.000000,,2013-03-31 21:33:00,
2013-03-31 11:43:00,78.0,55.0,30.06,NW,318,11.0,24.0,45,0.00,,,0.00,1018.000000,,2013-03-31 21:43:00,
2013-03-31 12:13:00,78.0,53.0,30.05,NNW,327,10.0,22.0,42,0.00,,,0.00,1154.000000,,2013-03-31 22:13:00,
2013-03-31 12:23:00,78.0,53.0,30.05,NNW,327,10.0,22.0,42,0.00,,,0.00,1154.000000,,2013-03-31 22:23:00,
2013-03-31 12:33:00,78.0,53.0,30.05,NNW,327,10.0,22.0,42,0.00,,,0.00,1154.000000,,2013-03-31 22:33:00,
2013-03-31 12:42:00,78.0,53.0,30.05,NNW,327,10.0,22.0,42,0.00,,,0.00,1154.000000,,2013-03-31 22:42:00,
2013-03-31 12:52:00,78.0,53.0,30.05,NNW,327,10.0,22.0,42,0.00,,,0.00,1154.000000,,2013-03-31 22:52:00,
2013-03-31 13:22:00,78.0,52.0,30.04,North,351,10.0,21.0,40,0.00,,,0.00,1222.000000,,2013-03-31 23:22:00,
2013-03-31 13:32:00,78.0,52.0,30.04,North,351,10.0,21.0,40,0.00,,,0.00,1222.000000,,2013-03-31 23:32:00,
2013-03-31 13:42:00,78.0,52.0,30.04,North,351,10.0,21.0,40,0.00,,,0.00,1222.000000,,2013-03-31 23:42:00,
2013-03-31 13:52:00,78.0,52.0,30.04,North,351,10.0,21.0,40,0.00,,,0.00,1222.000000,,2013-03-31 23:52:00,
2013-03-31 14:12:00,79.0,55.0,30.01,NW,324,13.0,27.0,43,0.00,,,0.00,1119.000000,,2013-04-01 00:12:00,
2013-03-31 14:22:00,79.0,55.0,30.01,NW,324,13.0,27.0,43,0.00,,,0.00,1119.000000,,2013-04-01 00:22:00,
2013-03-31 14:32:00,79.0,55.0,30.01,NW,324,13.0,27.0,43,0.00,,,0.00,1119.000000,,2013-04-01 00:32:00,
2013-03-31 14:42:00,79.0,55.0,30.01,NW,324,13.0,27.0,43,0.00,,,0.00,1119.000000,,2013-04-01 00:42:00,
2013-03-31 14:52:00,79.0,55.0,30.01,NW,324,13.0,27.0,43,0.00,,,0.00,1119.000000,,2013-04-01 00:52:00,
2013-03-31 15:12:00,78.0,54.0,29.99,West,277,10.0,22.0,43,0.00,,,0.00,1003.000000,,2013-04-01 01:12:00,
2013-03-31 15:22:00,78.0,54.0,29.99,West,277,10.0,22.0,43,0.00,,,0.00,1003.000000,,2013-04-01 01:22:00,
2013-03-31 15:32:00,78.0,54.0,29.99,West,277,10.0,22.0,43,0.00,,,0.00,1003.000000,,2013-04-01 01:32:00,
2013-03-31 15:42:00,78.0,54.0,29.99,West,277,10.0,22.0,43,0.00,,,0.00,1003.000000,,2013-04-01 01:42:00,
2013-03-31 15:52:00,78.0,54.0,29.99,West,277,10.0,22.0,43,0.00,,,0.00,1003.000000,,2013-04-01 01:52:00,
2013-03-31 16:12:00,78.0,52.0,29.99,WNW,282,9.0,17.0,41,0.00,,,0.00,873.000000,,2013-04-01 02:12:00,
2013-03-31 16:22:00,78.0,52.0,29.99,WNW,282,9.0,17.0,41,0.00,,,0.00,873.000000,,2013-04-01 02:22:00,
2013-03-31 16:32:00,78.0,52.0,29.99,WNW,282,9.0,17.0,41,0.00,,,0.00,873.000000,,2013-04-01 02:32:00,
2013-03-31 16:42:00,78.0,52.0,29.99,WNW,282,9.0,17.0,41,0.00,,,0.00,873.000000,,2013-04-01 02:42:00,
2013-03-31 16:52:00,78.0,52.0,29.99,WNW,282,9.0,17.0,41,0.00,,,0.00,873.000000,,2013-04-01 02:52:00,
2013-03-31 17:22:00,78.0,51.0,29.98,NW,311,11.0,18.0,39,0.00,,,0.00,609.000000,,2013-04-01 03:22:00,
2013-03-31 17:33:00,78.0,51.0,29.98,NW,311,11.0,18.0,39,0.00,,,0.00,609.000000,,2013-04-01 03:33:00,
2013-03-31 17:43:00,78.0,51.0,29.98,NW,311,11.0,18.0,39,0.00,,,0.00,609.000000,,2013-04-01 03:43:00,
2013-03-31 17:52:00,78.0,51.0,29.98,NW,311,11.0,18.0,39,0.00,,,0.00,609.000000,,2013-04-01 03:52:00,
2013-03-31 18:23:00,74.0,54.0,29.97,WSW,257,15.0,22.0,49,0.00,,,0.00,314.000000,,2013-04-01 04:23:00,
2013-03-31 18:32:00,74.0,54.0,29.97,WSW,257,15.0,22.0,49,0.00,,,0.00,314.000000,,2013-04-01 04:32:00,
2013-03-31 18:43:00,74.0,54.0,29.97,WSW,257,15.0,22.0,49,0.00,,,0.00,314.000000,,2013-04-01 04:43:00,
2013-03-31 18:52:00,74.0,54.0,29.97,WSW,257,15.0,22.0,49,0.00,,,0.00,314.000000,,2013-04-01 04:52:00,
2013-03-31 19:12:00,73.0,53.0,29.99,WNW,286,13.0,21.0,50,0.00,,,0.00,47.000000,,2013-04-01 05:12:00,
2013-03-31 19:22:00,73.0,53.0,29.99,WNW,286,13.0,21.0,50,0.00,,,0.00,47.000000,,2013-04-01 05:22:00,
2013-03-31 19:32:00,73.0,53.0,29.99,WNW,286,13.0,21.0,50,0.00,,,0.00,47.000000,,2013-04-01 05:32:00,
2013-03-31 19:42:00,73.0,53.0,29.99,WNW,286,13.0,21.0,50,0.00,,,0.00,47.000000,,2013-04-01 05:42:00,
2013-03-31 19:52:00,73.0,53.0,29.99,WNW,286,13.0,21.0,50,0.00,,,0.00,47.000000,,2013-04-01 05:52:00,
2013-03-31 20:12:00,72.0,53.0,30.01,NW,312,12.0,25.0,51,0.00,,,0.00,0.000000,,2013-04-01 06:12:00,
2013-03-31 20:22:00,72.0,53.0,30.01,NW,312,12.0,25.0,51,0.00,,,0.00,0.000000,,2013-04-01 06:22:00,
2013-03-31 20:33:00,72.0,53.0,30.01,NW,312,12.0,25.0,51,0.00,,,0.00,0.000000,,2013-04-01 06:33:00,
2013-03-31 20:42:00,72.0,53.0,30.01,NW,312,12.0,25.0,51,0.00,,,0.00,0.000000,,2013-04-01 06:42:00,
2013-03-31 20:52:00,72.0,53.0,30.01,NW,312,12.0,25.0,51,0.00,,,0.00,0.000000,,2013-04-01 06:52:00,
2013-03-31 21:12:00,70.0,53.0,30.02,WNW,289,12.0,23.0,55,0.00,,,0.00,0.000000,,2013-04-01 07:12:00,
2013-03-31 21:22:00,70.0,53.0,30.02,WNW,289,12.0,23.0,55,0.00,,,0.00,0.000000,,2013-04-01 07:22:00,
2013-03-31 21:32:00,70.0,53.0,30.02,WNW,289,12.0,23.0,55,0.00,,,0.00,0.000000,,2013-04-01 07:32:00,
2013-03-31 21:42:00,70.0,53.0,30.02,WNW,289,12.0,23.0,55,0.00,,,0.00,0.000000,,2013-04-01 07:42:00,
2013-03-31 21:52:00,70.0,53.0,30.02,WNW,289,12.0,23.0,55,0.00,,,0.00,0.000000,,2013-04-01 07:52:00,
2013-03-31 22:12:00,71.0,55.0,30.02,NW,305,17.0,24.0,57,0.00,,,0.00,0.000000,,2013-04-01 08:12:00,
2013-03-31 22:22:00,71.0,55.0,30.02,NW,305,17.0,24.0,57,0.00,,,0.00,0.000000,,2013-04-01 08:22:00,
2013-03-31 22:32:00,71.0,55.0,30.02,NW,305,17.0,24.0,57,0.00,,,0.00,0.000000,,2013-04-01 08:32:00,
2013-03-31 22:43:00,71.0,55.0,30.02,NW,305,17.0,24.0,57,0.00,,,0.00,0.000000,,2013-04-01 08:43:00,
2013-03-31 22:52:00,71.0,55.0,30.02,NW,305,17.0,24.0,57,0.00,,,0.00,0.000000,,2013-04-01 08:52:00,
2013-03-31 23:12:00,71.0,54.0,30.02,WNW,298,12.0,24.0,54,0.00,,,0.00,0.000000,,2013-04-01 09:12:00,
2013-03-31 23:22:00,71.0,54.0,30.02,WNW,298,12.0,24.0,54,0.00,,,0.00,0.000000,,2013-04-01 09:22:00,
2013-03-31 23:33:00,71.0,54.0,30.02,WNW,298,12.0,24.0,54,0.00,,,0.00,0.000000,,2013-04-01 09:33:00,
2013-03-31 23:42:00,71.0,54.0,30.02,WNW,298,12.0,24.0,54,0.00,,,0.00,0.000000,,2013-04-01 09:42:00,
2013-03-31 23:52:00,71.0,54.0,30.02,WNW,298,12.0,24.0,54,0.00,,,0.00,0.000000,,2013-04-01 09:52:00,